Latest Coastal Weather Observations for Dunalley

IDT60701

Issued at 6:42 pm EDT Friday 9 December 2016 (issued every 10 minutes, with the page automatically refreshed every 10 minutes)

About coastal observations | Map of coastal stations | Coastal observations for TAS | Marine services | Other Formats
Station Details ID: 094254 Name: DUNALLEY (STROUD POINT) Lat: -42.90 Lon: 147.79 Height: 12.43 m
Data from the previous 72 hours. | See also: Recent months at Dunalley
Date/Time
EDT
Temp
°C
Wind Pressure Rain since
9am
mm
Weather Cloud Vis
km
Sea
Height
m
Swell
Dir  Spd
kts
Gust
kts
hPa Trend Height
m
Period
s
Dir
09/06:30pm 12.3 SW 22 26 1011.9 - 1.8 - - - - - - -
09/06:00pm 12.8 SW 23 27 1011.1 - 1.8 - - - - - - -
09/05:30pm 13.5 SW 26 32 1010.5 - 1.8 - - - - - - -
09/05:00pm 13.4 SW 21 27 1010.3 - 1.8 - - - - - - -
09/04:30pm 13.6 SW 23 28 1010.2 - 1.8 - - - - - - -
09/04:10pm 13.2 SW 22 32 1010.1 - 1.8 - - - - - - -
09/04:00pm 12.9 SW 27 32 1009.8 - 1.8 - - - - - - -
09/03:30pm 13.5 SW 25 31 1009.4 - 1.8 - - - - - - -
09/03:22pm 14.1 SW 27 38 1009.3 - 1.8 - - - - - - -
09/03:00pm 14.2 SW 27 36 1009.2 - 1.8 - - - - - - -
09/02:56pm 13.3 SW 26 36 1009.1 - 1.8 - - - - - - -
09/02:30pm 13.5 SW 27 33 1009.1 - 1.8 - - - - - - -
09/02:00pm 12.8 SW 27 33 1008.6 - 1.8 - - - - - - -
09/01:30pm 12.8 SW 29 39 1008.4 - 1.8 - - - - - - -
09/01:00pm 11.8 SW 26 34 1008.3 - 1.8 - - - - - - -
09/12:30pm 12.7 SW 28 34 1008.1 - 1.8 - - - - - - -
09/12:06pm 10.6 SW 28 38 1008.0 - 1.8 - - - - - - -
09/12:00pm 10.6 SW 31 38 1007.8 - 1.8 - - - - - - -
09/11:30am 11.5 SW 27 33 1007.4 - 1.8 - - - - - - -
09/11:00am 10.4 SW 27 38 1007.0 - 1.8 - - - - - - -
09/10:57am 10.9 SW 26 38 1006.9 - 1.8 - - - - - - -
09/10:30am 9.6 SW 26 33 1006.7 - 1.6 - - - - - - -
09/10:00am 9.2 SW 32 39 1006.1 - 1.6 - - - - - - -
09/09:30am 10.1 SW 29 37 1005.7 - 0.2 - - - - - - -
09/09:20am 10.3 SW 29 43 1005.4 - 0.0 - - - - - - -
09/09:00am 10.7 SW 32 39 1004.8 - 1.0 - - - - - - -
09/08:44am 10.1 WSW 26 38 1004.6 - 1.0 - - - - - - -
09/08:30am 10.2 WSW 28 34 1004.5 - 1.0 - - - - - - -
09/08:23am 10.2 WSW 29 40 1004.3 - 1.0 - - - - - - -
09/08:00am 10.1 SW 31 38 1003.7 - 1.0 - - - - - - -
09/07:31am 9.4 SW 31 46 1002.9 - 1.0 - - - - - - -
09/07:30am 9.3 SW 31 39 1003.1 - 1.0 - - - - - - -
09/07:13am 10.3 SW 26 36 1002.8 - 0.8 - - - - - - -
09/07:00am 9.8 SW 29 37 1002.4 - 0.8 - - - - - - -
09/06:30am 9.1 SW 34 45 1001.4 - 0.8 - - - - - - -
09/06:08am 9.4 SW 33 44 1000.8 - 0.8 - - - - - - -
09/06:00am 9.4 SW 34 44 1000.4 - 0.8 - - - - - - -
09/05:31am 10.5 WSW 33 43 999.2 - 0.8 - - - - - - -
09/05:30am 10.6 WSW 33 42 999.3 - 0.8 - - - - - - -
09/05:05am 10.9 WSW 34 47 998.6 - 0.8 - - - - - - -
09/05:00am 10.7 WSW 34 41 998.6 - 0.8 - - - - - - -
09/04:30am 11.2 WSW 33 45 997.9 - 0.8 - - - - - - -
09/04:22am 10.8 WSW 32 45 997.5 - 0.8 - - - - - - -
09/04:00am 11.3 WSW 35 42 996.7 - 0.8 - - - - - - -
09/03:30am 11.4 WSW 32 43 995.9 - 0.8 - - - - - - -
09/03:22am 11.9 WSW 31 42 996.0 - 0.8 - - - - - - -
09/03:00am 11.8 WSW 31 38 995.3 - 0.8 - - - - - - -
09/02:30am 11.5 WSW 35 43 994.8 - 0.8 - - - - - - -
09/02:08am 11.6 WSW 33 43 994.1 - 0.8 - - - - - - -
09/02:00am 11.6 WSW 33 39 994.1 - 0.8 - - - - - - -
09/01:30am 12.0 WSW 34 40 993.6 - 0.8 - - - - - - -
09/01:03am 12.3 SW 35 45 992.9 - 0.8 - - - - - - -
09/01:00am 12.0 WSW 36 43 992.7 - 0.8 - - - - - - -
09/12:30am 12.6 WSW 33 43 992.0 - 0.6 - - - - - - -
09/12:00am 12.4 WSW 39 53 990.6 - 0.6 - - - - - - -
 
Date/Time
EDT
Temp
°C
Wind Pressure Rain since
9am
mm
Weather Cloud Vis
km
Sea
Height
m
Swell
Dir  Spd
kts
Gust
kts
hPa Trend Height
m
Period
s
Dir
08/11:30pm 12.5 SW 39 50 989.3 - 0.6 - - - - - - -
08/11:27pm 12.8 SW 40 52 989.3 - 0.6 - - - - - - -
08/11:01pm 12.4 WSW 35 57 987.3 - 0.6 - - - - - - -
08/11:00pm 14.1 WSW 33 50 987.4 - 0.6 - - - - - - -
08/10:57pm 14.7 WSW 29 40 987.3 - 0.4 - - - - - - -
08/10:30pm 15.1 W 31 36 986.3 - 0.4 - - - - - - -
08/10:00pm 15.9 WSW 26 30 985.8 - 0.4 - - - - - - -
08/09:30pm 16.2 WSW 23 29 984.7 - 0.4 - - - - - - -
08/09:00pm 16.4 W 13 19 984.0 - 0.4 - - - - - - -
08/08:53pm 16.0 W 15 25 983.9 - 0.4 - - - - - - -
08/08:30pm 17.1 WNW 18 26 983.0 - 0.4 - - - - - - -
08/08:00pm 18.3 WNW 11 19 983.0 - 0.4 - - - - - - -
08/07:30pm 17.6 N 6 10 982.7 - 0.4 - - - - - - -
08/07:00pm 18.1 NNW 10 16 982.4 - 0.4 - - - - - - -
08/06:30pm 19.4 NNW 13 24 982.0 - 0.4 - - - - - - -
08/06:00pm 19.7 N 15 29 981.5 - 0.4 - - - - - - -
08/05:34pm 20.4 NNW 15 28 981.8 - 0.4 - - - - - - -
08/05:30pm 21.2 N 17 27 982.0 - 0.4 - - - - - - -
08/05:00pm 19.7 N 24 35 982.1 - 0.4 - - - - - - -
08/04:30pm 20.9 N 23 38 982.1 - 0.4 - - - - - - -
08/04:00pm 21.5 N 21 39 982.0 - 0.4 - - - - - - -
08/03:30pm 21.2 N 23 34 983.3 - 0.4 - - - - - - -
08/03:00pm 21.5 NNE 23 35 984.3 - 0.4 - - - - - - -
08/02:32pm 21.9 NNE 25 36 984.8 - 0.4 - - - - - - -
08/02:30pm 21.8 NNE 25 34 984.8 - 0.4 - - - - - - -
08/02:00pm 21.4 N 21 36 985.5 - 0.4 - - - - - - -
08/01:30pm 22.3 N 25 40 985.9 - 0.4 - - - - - - -
08/01:15pm 21.4 NNE 27 47 985.6 - 0.4 - - - - - - -
08/01:07pm 21.9 NNE 19 34 986.1 - 0.4 - - - - - - -
08/01:01pm 20.3 NE 18 31 986.0 - 0.4 - - - - - - -
08/01:00pm 20.3 NE 18 27 986.2 - 0.4 - - - - - - -
08/12:30pm 17.1 NE 15 19 987.4 - 0.4 - - - - - - -
08/12:00pm 16.9 NE 15 20 988.6 - 0.2 - - - - - - -
08/11:30am 15.9 NE 20 25 988.3 - 0.2 - - - - - - -
08/11:00am 16.4 NNE 16 25 990.2 - 0.2 - - - - - - -
08/10:58am 16.4 NNE 15 25 990.4 - 0.2 - - - - - - -
08/10:30am 15.5 NE 12 15 991.5 - 0.0 - - - - - - -
08/10:00am 14.6 NE 23 28 991.5 - 0.0 - - - - - - -
08/09:30am 14.1 NE 22 27 992.1 - 0.0 - - - - - - -
08/09:00am 12.8 NE 20 24 993.9 - 2.0 Rain - - - - - -
08/08:30am 12.8 NE 12 15 995.9 - 1.6 - - - - - - -
08/08:00am 13.0 NNE 12 16 997.4 - 1.4 - - - - - - -
08/07:30am 13.2 NNE 12 17 997.3 - 1.2 - - - - - - -
08/07:00am 12.6 NE 11 14 997.8 - 1.2 - - - - - - -
08/06:30am 12.8 NNE 6 9 998.8 - 0.8 - - - - - - -
08/06:00am 13.5 N 9 16 999.6 - 0.0 - - - - - - -
08/05:30am 14.0 N 11 18 999.9 - 0.0 - - - - - - -
08/05:00am 14.4 N 9 15 1000.3 - 0.0 - - - - - - -
08/04:30am 13.2 N 4 8 1000.4 - 0.0 - - - - - - -
08/04:00am 13.1 N 5 9 1000.8 - 0.0 - - - - - - -
08/03:30am 13.1 N 3 6 1001.6 - 0.0 - - - - - - -
08/03:00am 13.1 N 5 7 1002.0 - 0.0 - - - - - - -
08/02:30am 13.2 NE 4 8 1002.9 - 0.0 - - - - - - -
08/02:00am 13.2 W 7 10 1003.6 - 0.0 - - - - - - -
08/01:30am 11.7 W 3 5 1004.4 - 0.0 - - - - - - -
08/01:00am 11.6 W 3 4 1004.8 - 0.0 - - - - - - -
08/12:30am 12.0 W 2 2 1005.7 - 0.0 - - - - - - -
08/12:00am 12.7 W 4 5 1006.5 - 0.0 - - - - - - -
 
Date/Time
EDT
Temp
°C
Wind Pressure Rain since
9am
mm
Weather Cloud Vis
km
Sea
Height
m
Swell
Dir  Spd
kts
Gust
kts
hPa Trend Height
m
Period
s
Dir
07/11:30pm 13.2 W 4 6 1006.7 - 0.0 - - - - - - -
07/11:00pm 13.1 W 1 2 1006.9 - 0.0 - - - - - - -
07/10:30pm 13.3 WNW 7 9 1006.8 - 0.0 - - - - - - -
07/10:00pm 13.6 WNW 7 9 1007.3 - 0.0 - - - - - - -
07/09:30pm 14.2 WNW 4 6 1007.6 - 0.0 - - - - - - -
07/09:00pm 14.3 WNW 9 12 1007.3 - 0.0 - - - - - - -
07/08:30pm 14.9 WNW 10 13 1007.5 - 0.0 - - - - - - -
07/08:00pm 16.1 NW 7 9 1007.2 - 0.0 - - - - - - -
07/07:30pm 17.8 N 7 12 1007.1 - 0.0 - - - - - - -
07/07:00pm 18.6 NE 10 11 1007.1 - 0.0 - - - - - - -
07/06:30pm 19.3 ENE 12 14 1007.3 - 0.0 - - - - - - -
07/06:00pm 20.0 NE 12 15 1007.4 - 0.0 - - - - - - -
07/05:30pm 20.9 ENE 12 15 1007.5 - 0.0 - - - - - - -
07/05:00pm 21.4 ENE 10 13 1007.6 - 0.0 - - - - - - -
07/04:30pm 22.2 ENE 11 14 1007.9 - 0.0 - - - - - - -
07/04:00pm 21.3 ENE 12 15 1008.0 - 0.0 - - - - - - -
07/03:30pm 21.6 NE 9 12 1008.2 - 0.0 - - - - - - -
07/03:00pm 24.1 WNW 9 16 1008.4 - 0.0 - - - - - - -
07/02:30pm 22.4 WSW 10 16 1008.4 - 0.0 - - - - - - -
07/02:00pm 21.1 SW 8 12 1008.7 - 0.0 - - - - - - -
07/01:30pm 20.2 SW 8 11 1009.0 - 0.0 - - - - - - -
07/01:00pm 20.5 SW 10 14 1009.2 - 0.0 - - - - - - -
07/12:30pm 19.7 WSW 11 14 1009.5 - 0.0 - - - - - - -
07/12:00pm 20.2 WNW 11 19 1009.8 - 0.0 - - - - - - -
07/11:30am 20.4 WNW 9 16 1010.0 - 0.0 - - - - - - -
07/11:00am 19.1 NW 8 14 1010.1 - 0.0 - - - - - - -
07/10:30am 18.3 NNW 7 13 1010.3 - 0.0 - - - - - - -
07/10:00am 19.5 NNW 9 13 1010.6 - 0.0 - - - - - - -
07/09:30am 18.3 NNW 8 12 1010.7 - 0.0 - - - - - - -
07/09:00am 17.6 NNW 9 13 1010.8 - 0.2 - - - - - - -
07/08:30am 16.7 NNW 8 11 1011.0 - 0.2 - - - - - - -
07/08:00am 15.9 NW 8 12 1010.9 - 0.2 - - - - - - -
07/07:30am 14.9 NNW 7 10 1010.7 - 0.2 - - - - - - -
07/07:00am 14.0 NNW 10 14 1010.6 - 0.2 - - - - - - -
07/06:30am 13.5 N 7 11 1010.5 - 0.2 - - - - - - -
07/06:00am 13.1 NW 11 16 1010.2 - 0.2 - - - - - - -
07/05:30am 12.0 NNW 9 11 1010.1 - 0.2 - - - - - - -
07/05:00am 12.3 NW 7 11 1009.8 - 0.2 - - - - - - -
07/04:30am 12.6 NW 9 13 1009.5 - 0.2 - - - - - - -
07/04:00am 12.3 NNW 7 11 1009.4 - 0.2 - - - - - - -
07/03:30am 12.5 NNW 9 13 1009.5 - 0.2 - - - - - - -
07/03:00am 12.2 NNW 6 8 1009.7 - 0.2 - - - - - - -
07/02:30am 12.5 NNW 8 10 1010.0 - 0.2 - - - - - - -
07/02:00am 13.1 NNW 10 13 1010.0 - 0.2 - - - - - - -
07/01:30am 13.3 NW 7 13 1010.0 - 0.2 - - - - - - -
07/01:00am 13.6 NW 8 12 1010.1 - 0.2 - - - - - - -
07/12:30am 13.6 NW 8 13 1010.1 - 0.2 - - - - - - -
07/12:00am 13.6 NNW 7 10 1010.3 - 0.2 - - - - - - -
 
Date/Time
EDT
Temp
°C
Wind Pressure Rain since
9am
mm
Weather Cloud Vis
km
Sea
Height
m
Swell
Dir  Spd
kts
Gust
kts
hPa Trend Height
m
Period
s
Dir
06/11:30pm 13.1 NNE 6 9 1010.4 - 0.2 - - - - - - -
06/11:00pm 12.4 NNE 4 5 1010.5 - 0.2 - - - - - - -
06/10:30pm 12.6 NE 5 11 1010.6 - 0.2 - - - - - - -
06/10:00pm 13.3 NE 11 15 1010.6 - 0.2 - - - - - - -
06/09:30pm 13.4 NE 12 14 1010.4 - 0.2 - - - - - - -
06/09:00pm 13.7 NE 10 13 1010.3 - 0.2 - - - - - - -
06/08:30pm 13.8 NE 10 14 1009.8 - 0.2 - - - - - - -
06/08:00pm 14.5 NE 11 15 1009.4 - 0.2 - - - - - - -
06/07:30pm 16.3 S 3 7 1009.2 - 0.2 - - - - - - -
06/07:00pm 16.4 SSE 4 6 1008.9 - 0.2 - - - - - - -

Other Formats:

Comma delimited format used in spreadsheet applications
http://www.bom.gov.au/fwo/IDT60701/IDT60701.94951.axf

JavaScript Object Notation format (JSON) in row-major order
http://www.bom.gov.au/fwo/IDT60701/IDT60701.94951.json